Terminal Aerodrome Forecast
Issued by NWS Charleston, SC

Home | Current Version | Previous Version | Text Only | Print | Product List | Glossary On
Versions: 1 2 3 4 5 6 7 8 9 10 11 12 13 14 15 16 17 18 19 20 21
000
FTUS42 KCHS 292320
TAFCHS
TAF
KCHS 292320Z 3000/3024 05005KT P6SM FEW050 SCT100
     FM300900 02003KT P6SM FEW020 SCT050
     FM301600 08008KT P6SM VCSH BKN035
     FM302000 09008KT P6SM SCT040=

USA.gov is the U.S. government's official web portal to all federal, state and local government web resources and services.